createdAt,value
2022-11-14T00:03:02.378Z,2.75
2022-11-14T00:06:09.917Z,2.77
2022-11-14T00:09:16.553Z,2.87
2022-11-14T00:12:24.166Z,2.74
2022-11-14T00:15:30.982Z,2.60
2022-11-14T00:18:37.221Z,1.36
2022-11-14T00:21:43.287Z,0.79
2022-11-14T00:24:49.651Z,1.57
2022-11-14T00:27:59.849Z,1.61
2022-11-14T00:31:06.450Z,1.01
2022-11-14T00:34:12.785Z,1.82
2022-11-14T00:37:19.046Z,1.94
2022-11-14T00:40:25.281Z,2.33
2022-11-14T00:43:32.712Z,1.80
2022-11-14T00:46:39.753Z,1.74
2022-11-14T00:49:45.586Z,1.73
2022-11-14T00:52:51.658Z,1.63
2022-11-14T00:55:57.688Z,1.04
2022-11-14T00:59:05.594Z,2.16
2022-11-14T01:02:11.762Z,2.14
2022-11-14T01:05:18.140Z,2.55
2022-11-14T01:08:24.349Z,2.12
2022-11-14T01:11:30.620Z,2.26
2022-11-14T01:14:38.405Z,2.12
2022-11-14T01:17:44.848Z,1.98
2022-11-14T01:20:51.299Z,1.90
2022-11-14T01:23:57.891Z,1.74
2022-11-14T01:27:04.086Z,1.56
2022-11-14T01:30:12.473Z,1.64
2022-11-14T01:33:18.879Z,1.20
2022-11-14T01:36:25.213Z,1.56
2022-11-14T01:39:31.624Z,1.47
2022-11-14T01:42:38.022Z,1.62
2022-11-14T01:45:56.052Z,2.18
2022-11-14T01:49:06.516Z,2.04
2022-11-14T01:52:16.561Z,2.23
2022-11-14T01:55:22.741Z,2.14
2022-11-14T01:58:31.004Z,2.22
2022-11-14T02:01:45.900Z,2.35
2022-11-14T02:04:57.207Z,1.79
2022-11-14T02:08:03.562Z,2.15
2022-11-14T02:11:11.967Z,1.90
2022-11-14T02:14:18.584Z,1.23
2022-11-14T02:17:30.628Z,0.80
2022-11-14T02:20:43.326Z,1.13
2022-11-14T02:23:49.527Z,0.92
2022-11-14T02:26:55.657Z,0.59
2022-11-14T02:30:05.733Z,1.27
2022-11-14T02:33:12.040Z,1.94
2022-11-14T02:36:19.610Z,1.84
2022-11-14T02:39:26.383Z,1.64
2022-11-14T02:42:32.767Z,1.17
2022-11-14T02:45:38.737Z,1.13
2022-11-14T02:48:44.745Z,1.76
2022-11-14T02:51:52.696Z,1.54
2022-11-14T02:54:59.153Z,1.42
2022-11-14T02:58:05.442Z,1.09
2022-11-14T03:01:20.682Z,0.74
2022-11-14T03:04:27.606Z,1.22
2022-11-14T03:07:35.226Z,1.36
2022-11-14T03:10:41.693Z,1.33
2022-11-14T03:13:47.675Z,0.90
2022-11-14T03:16:56.520Z,0.84
2022-11-14T03:20:03.125Z,0.69
2022-11-14T03:23:10.798Z,0.91
2022-11-14T03:26:17.523Z,1.93
2022-11-14T03:29:23.811Z,2.21
2022-11-14T03:32:29.971Z,1.02
2022-11-14T03:35:36.348Z,1.67
2022-11-14T03:38:44.690Z,2.14
2022-11-14T03:41:51.146Z,1.12
2022-11-14T03:44:57.158Z,0.90
2022-11-14T03:48:03.457Z,0.89
2022-11-14T03:51:09.750Z,1.12
2022-11-14T03:54:17.497Z,0.85
2022-11-14T03:57:23.973Z,1.15
2022-11-14T04:00:30.510Z,1.31
2022-11-14T04:03:36.993Z,1.73
2022-11-14T04:06:43.152Z,1.03
2022-11-14T04:09:52.102Z,1.20
2022-11-14T04:12:58.613Z,0.91
2022-11-14T04:16:05.284Z,1.03
2022-11-14T04:19:11.675Z,0.80
2022-11-14T04:22:17.899Z,1.11
2022-11-14T04:25:25.626Z,0.83
2022-11-14T04:28:32.012Z,1.32
2022-11-14T04:31:38.605Z,0.91
2022-11-14T04:34:44.515Z,1.16
2022-11-14T04:37:50.710Z,1.11
2022-11-14T04:40:58.104Z,0.62
2022-11-14T04:44:04.584Z,0.91
2022-11-14T04:47:10.614Z,0.44
2022-11-14T04:50:17.252Z,0.25
2022-11-14T04:53:23.897Z,1.00
2022-11-14T04:56:31.460Z,0.70
2022-11-14T04:59:38.021Z,0.77
2022-11-14T05:02:44.194Z,0.11
2022-11-14T05:05:50.518Z,0.65
2022-11-14T05:08:56.624Z,0.96
2022-11-14T05:12:04.331Z,0.58
2022-11-14T05:15:11.647Z,0.64
2022-11-14T05:18:18.157Z,1.01
2022-11-14T05:21:24.331Z,0.39
2022-11-14T05:24:30.663Z,0.84
2022-11-14T05:27:38.334Z,1.12
2022-11-14T05:30:44.529Z,1.21
2022-11-14T05:33:51.654Z,1.13
2022-11-14T05:36:57.785Z,0.87
2022-11-14T05:40:05.059Z,1.52
2022-11-14T05:43:12.901Z,1.87
2022-11-14T05:46:19.306Z,1.42
2022-11-14T05:49:25.764Z,2.08
2022-11-14T05:52:33.198Z,1.17
2022-11-14T05:55:39.509Z,0.59
2022-11-14T05:58:47.184Z,1.56
2022-11-14T06:01:53.432Z,1.55
2022-11-14T06:04:59.842Z,0.67
2022-11-14T06:08:06.438Z,0.40
2022-11-14T06:11:15.333Z,0.64
2022-11-14T06:14:23.466Z,0.78
2022-11-14T06:17:30.159Z,0.65
2022-11-14T06:20:37.358Z,0.69
2022-11-14T06:23:44.034Z,1.29
2022-11-14T06:26:50.470Z,1.77
2022-11-14T06:29:58.438Z,1.98
2022-11-14T06:33:04.426Z,2.07
2022-11-14T06:36:11.418Z,1.24
2022-11-14T06:39:17.928Z,1.29
2022-11-14T06:42:24.172Z,2.00
2022-11-14T06:45:31.630Z,2.08
2022-11-14T06:48:38.021Z,1.06
2022-11-14T06:51:43.977Z,1.18
2022-11-14T06:54:50.175Z,0.99
2022-11-14T06:57:56.486Z,1.18
2022-11-14T07:01:11.898Z,1.30
2022-11-14T07:04:18.219Z,1.47
2022-11-14T07:07:24.516Z,2.18
2022-11-14T07:10:32.914Z,2.53
2022-11-14T07:13:40.108Z,2.74
2022-11-14T07:16:48.211Z,3.15
2022-11-14T07:19:54.459Z,2.79
2022-11-14T07:23:00.906Z,3.73
2022-11-14T07:26:08.677Z,4.21
2022-11-14T07:29:14.786Z,3.04
2022-11-14T07:32:22.209Z,3.73
2022-11-14T07:35:28.485Z,3.93
2022-11-14T07:38:35.639Z,4.35
2022-11-14T07:41:42.154Z,5.14
2022-11-14T07:44:48.391Z,5.26
2022-11-14T07:47:58.305Z,4.82
2022-11-14T07:51:07.050Z,4.34
2022-11-14T07:54:13.349Z,4.61
2022-11-14T07:57:19.825Z,4.92
2022-11-14T08:00:25.878Z,4.68
2022-11-14T08:03:33.359Z,4.91
2022-11-14T08:06:39.692Z,5.25
2022-11-14T08:09:45.931Z,5.41
2022-11-14T08:13:29.813Z,5.86
2022-11-14T08:16:26.633Z,5.53
2022-11-14T08:19:34.441Z,6.42
2022-11-14T08:22:40.772Z,5.89
2022-11-14T08:25:46.847Z,6.04
2022-11-14T08:28:54.587Z,6.15
2022-11-14T08:32:00.595Z,7.22
2022-11-14T08:35:08.974Z,7.26
2022-11-14T08:38:15.048Z,7.86
2022-11-14T08:41:22.586Z,8.06
2022-11-14T08:44:28.663Z,8.10
2022-11-14T08:47:35.255Z,8.17
2022-11-14T08:50:43.091Z,9.04
2022-11-14T08:53:49.370Z,9.07
2022-11-14T08:56:55.721Z,9.30
2022-11-14T09:00:02.007Z,9.41
2022-11-14T09:03:09.619Z,9.88
2022-11-14T09:06:17.109Z,10.43
2022-11-14T09:09:23.521Z,9.77
2022-11-14T09:12:29.845Z,10.27
2022-11-14T09:15:36.035Z,9.71
2022-11-14T09:18:42.618Z,10.48
2022-11-14T09:21:50.390Z,10.73
2022-11-14T09:24:56.915Z,11.27
2022-11-14T09:28:06.781Z,11.03
2022-11-14T09:31:14.566Z,11.24
2022-11-14T09:34:20.794Z,11.57
2022-11-14T09:37:28.421Z,11.56
2022-11-14T09:40:49.278Z,11.75
2022-11-14T09:44:22.988Z,11.86
2022-11-14T09:47:31.944Z,11.96
2022-11-14T09:50:43.900Z,11.74
2022-11-14T09:53:58.640Z,12.87
2022-11-14T09:57:04.974Z,12.64
2022-11-14T10:00:16.132Z,12.48
2022-11-14T10:03:28.830Z,12.72
2022-11-14T10:06:42.037Z,12.87
2022-11-14T10:10:04.577Z,13.00
2022-11-14T10:13:22.508Z,13.09
2022-11-14T10:16:40.546Z,13.36
2022-11-14T10:19:52.992Z,13.28
2022-11-14T10:23:26.869Z,13.99
2022-11-14T10:26:40.485Z,14.02
2022-11-14T10:30:06.684Z,14.74
2022-11-14T10:33:24.356Z,14.56
2022-11-14T10:36:47.521Z,14.14
2022-11-14T10:39:55.937Z,14.39
2022-11-14T10:43:12.328Z,14.21
2022-11-14T10:46:22.186Z,14.59
2022-11-14T10:49:32.528Z,14.44
2022-11-14T10:52:43.849Z,15.01
2022-11-14T10:56:07.936Z,15.00
2022-11-14T10:59:15.980Z,15.37
2022-11-14T11:02:22.356Z,14.68
2022-11-14T11:05:31.910Z,15.23
2022-11-14T11:09:00.935Z,15.30
2022-11-14T11:12:09.856Z,16.20
2022-11-14T11:15:20.960Z,16.21
2022-11-14T11:18:30.361Z,16.16
2022-11-14T11:21:49.290Z,16.22
2022-11-14T11:24:55.447Z,16.17
2022-11-14T11:28:08.120Z,16.32
2022-11-14T11:31:15.896Z,16.43
2022-11-14T11:34:26.479Z,16.63
2022-11-14T11:37:37.041Z,16.74
2022-11-14T11:40:45.472Z,16.69
2022-11-14T11:43:58.493Z,16.87
2022-11-14T11:47:12.396Z,16.52
2022-11-14T11:50:21.705Z,16.60
2022-11-14T11:53:35.786Z,17.32
2022-11-14T11:56:45.435Z,17.53
2022-11-14T12:00:00.629Z,17.43
2022-11-14T12:03:13.788Z,17.77
2022-11-14T12:06:25.007Z,18.16
2022-11-14T12:10:08.826Z,16.74
2022-11-14T12:13:34.190Z,17.44
2022-11-14T12:17:09.772Z,17.63
2022-11-14T12:20:45.589Z,17.70
2022-11-14T12:24:11.042Z,17.57
2022-11-14T12:27:32.017Z,18.72
2022-11-14T12:30:40.840Z,18.47
2022-11-14T12:33:54.628Z,18.13
2022-11-14T12:37:01.360Z,18.57
2022-11-14T12:40:20.086Z,18.50
2022-11-14T12:43:36.700Z,18.82
2022-11-14T12:47:13.521Z,18.53
2022-11-14T12:50:35.309Z,18.90
2022-11-14T12:53:43.518Z,18.75
2022-11-14T12:57:10.337Z,18.64
2022-11-14T13:00:19.399Z,19.02
2022-11-14T13:03:39.841Z,18.73
2022-11-14T13:06:59.520Z,18.92
2022-11-14T13:10:15.645Z,19.21
2022-11-14T13:13:41.919Z,18.37
2022-11-14T13:17:06.606Z,18.57
2022-11-14T13:20:46.843Z,18.70
2022-11-14T13:23:57.355Z,18.36
2022-11-14T13:27:45.224Z,18.19
2022-11-14T13:31:20.602Z,17.00
2022-11-14T13:34:37.835Z,16.82
2022-11-14T13:38:16.410Z,16.73
2022-11-14T13:41:47.416Z,16.09
2022-11-14T13:45:27.445Z,15.85
2022-11-14T13:48:58.296Z,15.62
2022-11-14T13:52:05.732Z,15.43
2022-11-14T13:55:21.474Z,14.94
2022-11-14T13:58:48.947Z,14.47
2022-11-14T14:02:17.602Z,14.37
2022-11-14T14:05:37.736Z,14.31
2022-11-14T14:09:04.601Z,13.81
2022-11-14T14:12:34.929Z,13.35
2022-11-14T14:15:48.287Z,13.18
2022-11-14T14:19:04.749Z,13.05
2022-11-14T14:22:20.608Z,12.68
2022-11-14T14:25:35.608Z,12.04
2022-11-14T14:28:53.473Z,12.20
2022-11-14T14:32:08.432Z,12.45
2022-11-14T14:35:25.893Z,12.07
2022-11-14T14:38:35.826Z,11.92
2022-11-14T14:41:42.817Z,12.08
2022-11-14T14:44:50.058Z,11.94
2022-11-14T14:48:03.345Z,11.74
2022-11-14T14:51:15.560Z,11.67
2022-11-14T14:54:25.989Z,11.33
2022-11-14T14:57:32.561Z,11.52
2022-11-14T15:00:39.359Z,11.34
2022-11-14T15:03:50.963Z,11.28
2022-11-14T15:06:58.540Z,11.06
2022-11-14T15:10:09.056Z,10.69
2022-11-14T15:13:19.053Z,10.21
2022-11-14T15:16:26.606Z,9.80
2022-11-14T15:19:40.245Z,9.68
2022-11-14T15:23:03.602Z,9.71
2022-11-14T15:26:17.633Z,9.57
2022-11-14T15:29:25.329Z,9.52
2022-11-14T15:32:31.476Z,9.31
2022-11-14T15:35:39.276Z,9.09
2022-11-14T15:39:11.821Z,8.99
2022-11-14T15:42:29.895Z,8.88
2022-11-14T15:45:41.651Z,9.15
2022-11-14T15:48:48.465Z,8.64
2022-11-14T15:51:57.693Z,8.56
2022-11-14T15:55:05.003Z,7.64
2022-11-14T15:58:27.746Z,7.90
2022-11-14T16:01:34.958Z,7.71
2022-11-14T16:04:47.249Z,7.75
2022-11-14T16:07:54.179Z,8.03
2022-11-14T16:11:00.443Z,7.94
2022-11-14T16:14:07.955Z,7.97
2022-11-14T16:17:16.024Z,7.90
2022-11-14T16:20:23.731Z,7.85
2022-11-14T16:23:30.279Z,7.51
2022-11-14T16:26:38.184Z,7.70
2022-11-14T16:29:45.985Z,7.58
2022-11-14T16:32:53.413Z,7.34
2022-11-14T16:36:00.348Z,7.10
2022-11-14T16:39:11.453Z,7.22
2022-11-14T16:42:17.933Z,7.15
2022-11-14T16:45:26.659Z,7.08
2022-11-14T16:48:32.721Z,6.89
2022-11-14T16:51:47.644Z,6.80
2022-11-14T16:54:55.170Z,6.82
2022-11-14T16:58:01.466Z,6.68
2022-11-14T17:01:18.651Z,6.91
2022-11-14T17:04:27.195Z,6.23
2022-11-14T17:07:33.857Z,5.83
2022-11-14T17:10:43.331Z,6.40
2022-11-14T17:13:49.816Z,6.34
2022-11-14T17:17:04.945Z,6.08
2022-11-14T17:20:12.120Z,5.82
2022-11-14T17:23:18.233Z,5.79
2022-11-14T17:26:25.051Z,5.71
2022-11-14T17:29:31.666Z,5.80
2022-11-14T17:32:39.291Z,5.67
2022-11-14T17:35:45.724Z,5.93
2022-11-14T17:38:52.198Z,6.02
2022-11-14T17:41:58.308Z,6.06
2022-11-14T17:45:04.357Z,5.66
2022-11-14T17:48:13.987Z,5.80
2022-11-14T17:51:20.459Z,5.44
2022-11-14T17:54:26.363Z,4.93
2022-11-14T17:57:32.386Z,5.15
2022-11-14T18:00:38.844Z,4.80
2022-11-14T18:03:46.404Z,5.10
2022-11-14T18:06:52.740Z,5.17
2022-11-14T18:09:59.145Z,4.98
2022-11-14T18:13:05.749Z,5.34
2022-11-14T18:16:14.225Z,5.23
2022-11-14T18:19:21.860Z,5.38
2022-11-14T18:22:28.556Z,5.37
2022-11-14T18:25:34.894Z,4.73
2022-11-14T18:28:41.837Z,4.77
2022-11-14T18:31:48.469Z,3.99
2022-11-14T18:34:56.469Z,3.95
2022-11-14T18:38:02.646Z,3.88
2022-11-14T18:41:10.682Z,4.71
2022-11-14T18:44:17.193Z,4.78
2022-11-14T18:47:35.491Z,4.79
2022-11-14T18:50:43.458Z,4.33
2022-11-14T18:53:51.112Z,4.51
2022-11-14T18:56:58.570Z,4.48
2022-11-14T19:00:05.438Z,4.26
2022-11-14T19:03:25.356Z,3.92
2022-11-14T19:06:34.848Z,4.10
2022-11-14T19:09:41.014Z,4.34
2022-11-14T19:12:49.023Z,4.31
2022-11-14T19:15:55.141Z,4.05
2022-11-14T19:19:02.085Z,4.04
2022-11-14T19:22:09.696Z,3.97
2022-11-14T19:25:16.036Z,3.76
2022-11-14T19:28:25.875Z,4.29
2022-11-14T19:31:33.261Z,3.94
2022-11-14T19:34:39.349Z,3.98
2022-11-14T19:37:47.067Z,3.76
2022-11-14T19:40:53.136Z,4.03
2022-11-14T19:44:00.867Z,4.04
2022-11-14T19:47:07.134Z,3.46
2022-11-14T19:50:13.420Z,4.02
2022-11-14T19:53:21.138Z,3.43
2022-11-14T19:56:28.410Z,3.69
2022-11-14T19:59:34.923Z,3.63
2022-11-14T20:02:41.307Z,3.16
2022-11-14T20:05:47.682Z,3.43
2022-11-14T20:08:55.688Z,2.97
2022-11-14T20:12:03.073Z,2.96
2022-11-14T20:15:11.114Z,3.65
2022-11-14T20:18:17.997Z,3.64
2022-11-14T20:21:25.999Z,3.73
2022-11-14T20:24:33.937Z,3.43
2022-11-14T20:27:40.282Z,3.36
2022-11-14T20:30:46.962Z,3.55
2022-11-14T20:33:54.743Z,2.81
2022-11-14T20:37:16.428Z,2.99
2022-11-14T20:40:24.197Z,2.91
2022-11-14T20:43:31.104Z,2.50
2022-11-14T20:46:37.391Z,2.87
2022-11-14T20:49:44.432Z,2.49
2022-11-14T20:52:50.783Z,2.56
2022-11-14T20:55:58.248Z,2.47
2022-11-14T20:59:06.427Z,2.64
2022-11-14T21:02:14.638Z,2.90
2022-11-14T21:05:20.826Z,2.86
2022-11-14T21:08:27.276Z,2.44
2022-11-14T21:11:34.862Z,2.17
2022-11-14T21:14:41.222Z,2.26
2022-11-14T21:17:47.499Z,2.45
2022-11-14T21:21:00.105Z,2.54
2022-11-14T21:24:07.388Z,2.14
2022-11-14T21:27:14.969Z,2.51
2022-11-14T21:30:21.066Z,3.03
2022-11-14T21:33:27.472Z,2.72
2022-11-14T21:36:49.156Z,2.68
2022-11-14T21:39:55.525Z,2.98
2022-11-14T21:43:03.126Z,2.71
2022-11-14T21:46:10.742Z,2.89
2022-11-14T21:49:17.576Z,2.08
2022-11-14T21:52:24.196Z,1.66
2022-11-14T21:55:30.301Z,1.96
2022-11-14T21:58:38.253Z,1.70
2022-11-14T22:02:04.535Z,2.20
2022-11-14T22:05:10.880Z,2.36
2022-11-14T22:08:17.171Z,2.48
2022-11-14T22:11:23.751Z,2.42
2022-11-14T22:14:31.545Z,2.14
2022-11-14T22:17:37.744Z,2.06
2022-11-14T22:20:44.448Z,1.79
2022-11-14T22:23:54.043Z,1.76
2022-11-14T22:27:00.238Z,2.02
2022-11-14T22:30:08.909Z,1.35
2022-11-14T22:33:15.342Z,1.01
2022-11-14T22:36:23.741Z,1.58
2022-11-14T22:39:30.147Z,1.68
2022-11-14T22:42:36.770Z,1.67
2022-11-14T22:45:44.255Z,1.72
2022-11-14T22:48:51.312Z,1.89
2022-11-14T22:51:57.443Z,2.22
2022-11-14T22:55:03.988Z,2.41
2022-11-14T22:58:10.145Z,2.24
2022-11-14T23:01:21.463Z,2.08
2022-11-14T23:04:27.600Z,1.64
2022-11-14T23:07:33.700Z,1.95
2022-11-14T23:10:40.023Z,2.16
2022-11-14T23:13:47.632Z,2.21
2022-11-14T23:16:55.117Z,2.29
2022-11-14T23:20:01.536Z,2.35
2022-11-14T23:23:07.891Z,2.44
2022-11-14T23:26:16.277Z,2.33
2022-11-14T23:29:22.801Z,1.96
2022-11-14T23:32:30.491Z,1.63
2022-11-14T23:35:36.844Z,1.23
2022-11-14T23:38:43.257Z,1.12
2022-11-14T23:41:49.312Z,1.03
2022-11-14T23:44:55.357Z,1.03
2022-11-14T23:48:03.324Z,0.68
2022-11-14T23:51:10.169Z,0.97
2022-11-14T23:54:16.653Z,0.94
2022-11-14T23:57:22.740Z,1.90
